Weather reports worldwide

Advertisment
San Pietro Capofiume, Italy (16144): temperature & dewpoint: 17.10.2020 02:00:00 - 23.10.2020 02:00:00 (CEST)San Pietro Capofiume, Italy (16144): reduced air pressure: 17.10.2020 02:00:00 - 23.10.2020 02:00:00 (CEST)San Pietro Capofiume, Italy (16144): precipitation: 17.10.2020 02:00:00 - 23.10.2020 02:00:00 (CEST)
Date & Time tt [°C] td [°C] ppp [hPa] rr [mm]
23.10.2020 02:00:00 - - - -
23.10.2020 01:00:00 - - - -
23.10.2020 00:00:00 - - - -
22.10.2020 23:00:00 10,7 9,1 1024,3 0,0
22.10.2020 22:00:00 11,3 9,6 1024,1 -
22.10.2020 21:00:00 12,1 10,2 1024,1 0,0
22.10.2020 20:00:00 13,0 10,7 1024,3 0,0
22.10.2020 19:00:00 14,9 11,7 1024,0 0,0
22.10.2020 18:00:00 16,5 12,1 1023,4 0,0
22.10.2020 17:00:00 18,4 12,4 1023,4 0,0
22.10.2020 16:00:00 19,7 11,7 1023,3 0,0
22.10.2020 15:00:00 20,2 11,4 1023,5 0,0
22.10.2020 14:00:00 19,6 11,1 1024,1 0,0
22.10.2020 13:00:00 19,2 11,0 1024,7 0,0
22.10.2020 12:00:00 17,5 10,6 1025,4 0,0
22.10.2020 11:00:00 15,8 10,8 1025,4 0,0
22.10.2020 10:00:00 12,9 10,1 1025,3 0,0
22.10.2020 09:00:00 9,5 8,1 1025,3 0,0
22.10.2020 08:00:00 7,4 6,0 1024,7 0,0
22.10.2020 07:00:00 8,2 6,7 1024,6 0,2
22.10.2020 06:00:00 8,0 6,5 1024,6 0,0
22.10.2020 05:00:00 7,7 6,2 1024,7 0,0
22.10.2020 04:00:00 8,4 6,9 1024,8 0,0
22.10.2020 03:00:00 8,8 7,1 1025,0 0,0
22.10.2020 02:00:00 8,8 7,1 1024,8 0,0
22.10.2020 01:00:00 9,4 7,8 1024,7 0,0
22.10.2020 00:00:00 8,7 7,0 1024,6 0,0
21.10.2020 23:00:00 10,6 8,9 1024,3 0,0
21.10.2020 22:00:00 11,2 8,9 1024,4 0,0
21.10.2020 21:00:00 12,5 10,0 1024,5 0,0
21.10.2020 20:00:00 13,7 10,9 1024,2 0,0
21.10.2020 19:00:00 15,1 10,3 1023,9 0,0
21.10.2020 18:00:00 17,2 10,8 1023,6 0,0
21.10.2020 17:00:00 19,9 10,0 1023,7 0,0
21.10.2020 16:00:00 20,3 10,1 1023,9 0,0
21.10.2020 15:00:00 19,3 10,8 1024,2 0,0
21.10.2020 14:00:00 19,1 - 1024,6 -
21.10.2020 13:00:00 17,4 11,0 1025,3 0,0
21.10.2020 12:00:00 15,9 11,1 1025,8 0,0
21.10.2020 11:00:00 13,4 10,8 1025,7 0,0
21.10.2020 10:00:00 10,6 9,4 1025,7 0,0
21.10.2020 09:00:00 7,9 6,7 1025,3 0,0
21.10.2020 08:00:00 6,7 5,5 1024,6 0,0
21.10.2020 07:00:00 7,8 6,6 1024,2 0,0
21.10.2020 06:00:00 7,8 6,6 1024,2 0,0
21.10.2020 05:00:00 7,7 6,5 1024,2 0,0
21.10.2020 04:00:00 7,0 5,6 1024,2 0,0
21.10.2020 03:00:00 7,3 5,9 1024,7 0,0
21.10.2020 02:00:00 8,1 6,7 1024,8 0,0
21.10.2020 01:00:00 8,7 7,3 1025,1 0,0
21.10.2020 00:00:00 8,2 6,7 1024,8 0,0
20.10.2020 23:00:00 10,2 8,5 1025,1 0,0
20.10.2020 22:00:00 10,5 8,8 1025,1 0,0
20.10.2020 21:00:00 11,7 9,6 1025,1 0,0
20.10.2020 20:00:00 13,0 10,5 1025,2 0,0
20.10.2020 19:00:00 13,4 10,2 1025,1 0,0
20.10.2020 18:00:00 16,3 10,6 1025,0 0,0
20.10.2020 17:00:00 18,1 10,9 1024,8 0,0
20.10.2020 16:00:00 19,0 10,3 1024,9 0,0
20.10.2020 15:00:00 18,5 10,1 1025,4 2,0
20.10.2020 14:00:00 19,0 11,1 1025,9 0,2
20.10.2020 13:00:00 17,9 11,5 1026,4 0,0
20.10.2020 12:00:00 16,0 11,2 1026,5 0,0
20.10.2020 11:00:00 13,2 10,9 1026,3 0,0
20.10.2020 10:00:00 10,2 9,0 1026,2 0,0
20.10.2020 09:00:00 7,7 6,5 1026,0 0,0
20.10.2020 08:00:00 5,3 4,1 1025,5 0,0
20.10.2020 07:00:00 5,1 3,9 1025,4 0,0
20.10.2020 06:00:00 5,9 4,7 1024,8 0,0
20.10.2020 05:00:00 6,2 4,8 1025,0 0,0
20.10.2020 04:00:00 6,5 5,1 1024,9 0,0
20.10.2020 03:00:00 6,8 5,4 1025,3 0,0
20.10.2020 02:00:00 6,5 5,1 1025,4 0,0
20.10.2020 01:00:00 7,2 5,8 1025,3 0,0
20.10.2020 00:00:00 8,5 7,1 1025,3 0,0
19.10.2020 23:00:00 8,6 7,1 1025,1 0,0
19.10.2020 22:00:00 9,4 7,8 1024,9 0,0
19.10.2020 21:00:00 10,2 8,6 1024,8 0,0
19.10.2020 20:00:00 10,9 8,8 1024,5 0,0
19.10.2020 19:00:00 12,7 9,5 1024,3 0,0
19.10.2020 18:00:00 16,5 10,1 1023,9 0,0
19.10.2020 17:00:00 17,8 9,4 1024,1 0,0
19.10.2020 16:00:00 17,6 9,5 1024,2 0,0
19.10.2020 15:00:00 17,7 9,3 1024,1 0,0
19.10.2020 14:00:00 17,8 10,4 1024,7 0,0
19.10.2020 13:00:00 16,8 10,9 1025,3 0,0
19.10.2020 12:00:00 15,6 11,2 1025,5 0,0
19.10.2020 11:00:00 12,7 10,4 1025,6 0,0
19.10.2020 10:00:00 10,5 9,1 1025,5 0,0
19.10.2020 09:00:00 8,8 7,6 1025,0 0,0
19.10.2020 08:00:00 6,6 5,4 1024,4 0,0
19.10.2020 07:00:00 6,9 5,7 1024,3 0,0
19.10.2020 06:00:00 6,4 5,2 1024,1 0,2
19.10.2020 05:00:00 6,2 4,8 1023,9 0,0
19.10.2020 04:00:00 6,5 5,1 1023,8 0,0
19.10.2020 03:00:00 - - - -
19.10.2020 02:00:00 - - - -
19.10.2020 01:00:00 - - - -
19.10.2020 00:00:00 - - - -
18.10.2020 23:00:00 - - - -
18.10.2020 22:00:00 - - - -
18.10.2020 21:00:00 10,4 8,3 1022,2 0,0
18.10.2020 20:00:00 11,9 9,1 1022,1 0,0
18.10.2020 19:00:00 13,1 9,5 1021,4 0,0
18.10.2020 18:00:00 17,0 8,9 1021,0 0,0
18.10.2020 17:00:00 17,9 9,0 1020,9 0,0
18.10.2020 16:00:00 18,3 9,1 1021,0 0,0
18.10.2020 15:00:00 18,8 9,6 1021,2 0,0
18.10.2020 14:00:00 17,7 10,8 1021,3 0,0
18.10.2020 13:00:00 16,6 10,7 1021,7 0,0
18.10.2020 12:00:00 15,8 10,8 1021,7 0,0
18.10.2020 11:00:00 13,4 10,2 1021,7 0,0
18.10.2020 10:00:00 10,6 8,9 1021,2 0,0
18.10.2020 09:00:00 7,1 5,9 1020,9 0,0
18.10.2020 08:00:00 5,8 4,6 1019,9 0,0
18.10.2020 07:00:00 5,5 4,3 1019,5 0,0
18.10.2020 06:00:00 5,8 4,4 1019,2 0,2
18.10.2020 05:00:00 6,9 5,5 1018,9 0,0
18.10.2020 04:00:00 6,7 5,3 1018,6 0,0
18.10.2020 03:00:00 7,0 5,6 1018,6 0,0
18.10.2020 02:00:00 7,5 6,1 1018,5 0,0
18.10.2020 01:00:00 7,6 6,1 1018,2 0,0
18.10.2020 00:00:00 8,7 7,2 1018,0 -
17.10.2020 23:00:00 9,3 7,4 1017,8 0,0
17.10.2020 22:00:00 10,7 8,6 1017,5 0,0
17.10.2020 21:00:00 11,7 8,9 1017,1 0,0
17.10.2020 20:00:00 12,2 9,2 1016,8 0,0
17.10.2020 19:00:00 13,3 9,2 1016,1 0,0
17.10.2020 18:00:00 15,9 9,3 1015,5 0,0
17.10.2020 17:00:00 17,4 8,3 1015,4 0,0
17.10.2020 16:00:00 17,8 8,4 1015,4 0,0
17.10.2020 15:00:00 18,1 6,9 1015,3 0,0
17.10.2020 14:00:00 17,9 9,3 1015,5 0,0
17.10.2020 13:00:00 17,3 9,0 1016,1 0,0
17.10.2020 12:00:00 15,6 9,0 1016,2 0,0
17.10.2020 11:00:00 13,3 9,4 1016,1 0,0
17.10.2020 10:00:00 10,0 8,6 1015,9 0,0
17.10.2020 09:00:00 7,2 5,8 1015,5 0,0
17.10.2020 08:00:00 4,0 2,8 1014,9 0,0
17.10.2020 07:00:00 4,8 3,5 1014,7 0,0
17.10.2020 06:00:00 5,7 4,3 1014,7 0,0
17.10.2020 05:00:00 5,6 4,2 1014,4 0,0
17.10.2020 04:00:00 6,6 5,1 1014,2 0,0
17.10.2020 03:00:00 7,1 5,6 1014,6 0,0
17.10.2020 02:00:00 7,3 5,8 1014,5 0,0

tt = temperature
td = dewpoint
ppp = reduced air pressure
rr = precipitation

Next stations